sensor_id;sensor_type;location;lat;lon;timestamp;P1;durP1;ratioP1;P2;durP2;ratioP2
11066;SDS011;29763;50.904;5.530;2023-02-01T00:01:44;16.70;;;8.83;;
11066;SDS011;29763;50.904;5.530;2023-02-01T00:04:20;18.20;;;9.27;;
11066;SDS011;29763;50.904;5.530;2023-02-01T00:07:10;15.80;;;9.40;;
11066;SDS011;29763;50.904;5.530;2023-02-01T00:09:37;19.37;;;9.77;;
11066;SDS011;29763;50.904;5.530;2023-02-01T00:12:04;20.97;;;10.50;;
11066;SDS011;29763;50.904;5.530;2023-02-01T00:14:43;18.40;;;10.85;;
11066;SDS011;29763;50.904;5.530;2023-02-01T00:17:19;20.00;;;10.90;;
11066;SDS011;29763;50.904;5.530;2023-02-01T00:19:48;21.13;;;11.87;;
11066;SDS011;29763;50.904;5.530;2023-02-01T00:25:39;22.63;;;11.80;;
11066;SDS011;29763;50.904;5.530;2023-02-01T00:28:15;24.97;;;11.93;;
11066;SDS011;29763;50.904;5.530;2023-02-01T00:31:24;22.83;;;12.33;;
11066;SDS011;29763;50.904;5.530;2023-02-01T00:34:00;22.87;;;12.67;;
11066;SDS011;29763;50.904;5.530;2023-02-01T00:36:37;24.37;;;12.67;;
11066;SDS011;29763;50.904;5.530;2023-02-01T00:39:03;21.10;;;12.73;;
11066;SDS011;29763;50.904;5.530;2023-02-01T00:41:30;22.80;;;14.17;;
11066;SDS011;29763;50.904;5.530;2023-02-01T00:43:56;20.33;;;13.00;;
11066;SDS011;29763;50.904;5.530;2023-02-01T00:46:26;25.43;;;13.50;;
11066;SDS011;29763;50.904;5.530;2023-02-01T00:48:59;24.70;;;14.00;;
11066;SDS011;29763;50.904;5.530;2023-02-01T00:51:26;19.50;;;13.37;;
11066;SDS011;29763;50.904;5.530;2023-02-01T00:53:54;22.97;;;13.60;;
11066;SDS011;29763;50.904;5.530;2023-02-01T00:56:25;27.97;;;14.60;;
11066;SDS011;29763;50.904;5.530;2023-02-01T00:59:14;21.53;;;13.37;;
11066;SDS011;29763;50.904;5.530;2023-02-01T01:01:44;19.57;;;13.00;;
11066;SDS011;29763;50.904;5.530;2023-02-01T01:04:31;25.53;;;13.20;;
11066;SDS011;29763;50.904;5.530;2023-02-01T01:07:00;23.73;;;13.13;;
11066;SDS011;29763;50.904;5.530;2023-02-01T01:09:32;26.80;;;13.80;;
11066;SDS011;29763;50.904;5.530;2023-02-01T01:12:14;23.43;;;13.13;;
11066;SDS011;29763;50.904;5.530;2023-02-01T01:14:46;27.80;;;13.27;;
11066;SDS011;29763;50.904;5.530;2023-02-01T01:17:19;21.40;;;12.77;;
11066;SDS011;29763;50.904;5.530;2023-02-01T01:19:55;20.27;;;12.33;;
11066;SDS011;29763;50.904;5.530;2023-02-01T01:22:23;23.87;;;12.10;;
11066;SDS011;29763;50.904;5.530;2023-02-01T01:24:49;19.60;;;11.47;;
11066;SDS011;29763;50.904;5.530;2023-02-01T01:27:15;21.30;;;12.13;;
11066;SDS011;29763;50.904;5.530;2023-02-01T01:29:48;26.87;;;12.17;;
11066;SDS011;29763;50.904;5.530;2023-02-01T01:32:20;24.20;;;12.37;;
11066;SDS011;29763;50.904;5.530;2023-02-01T01:34:49;21.30;;;11.37;;
11066;SDS011;29763;50.904;5.530;2023-02-01T01:37:22;21.97;;;11.80;;
11066;SDS011;29763;50.904;5.530;2023-02-01T01:39:49;19.93;;;12.00;;
11066;SDS011;29763;50.904;5.530;2023-02-01T01:42:15;21.57;;;11.80;;
11066;SDS011;29763;50.904;5.530;2023-02-01T01:45:12;21.77;;;12.17;;
11066;SDS011;29763;50.904;5.530;2023-02-01T01:47:43;24.27;;;12.67;;
11066;SDS011;29763;50.904;5.530;2023-02-01T01:50:15;22.37;;;12.70;;
11066;SDS011;29763;50.904;5.530;2023-02-01T01:52:50;21.20;;;12.27;;
11066;SDS011;29763;50.904;5.530;2023-02-01T01:55:20;21.77;;;12.57;;
11066;SDS011;29763;50.904;5.530;2023-02-01T01:57:50;21.70;;;12.80;;
11066;SDS011;29763;50.904;5.530;2023-02-01T02:00:31;23.40;;;13.03;;
11066;SDS011;29763;50.904;5.530;2023-02-01T02:03:02;21.93;;;11.70;;
11066;SDS011;29763;50.904;5.530;2023-02-01T02:05:36;22.25;;;12.35;;
11066;SDS011;29763;50.904;5.530;2023-02-01T02:08:02;19.83;;;12.47;;
11066;SDS011;29763;50.904;5.530;2023-02-01T02:10:29;22.40;;;12.10;;
11066;SDS011;29763;50.904;5.530;2023-02-01T02:13:16;23.80;;;10.97;;
11066;SDS011;29763;50.904;5.530;2023-02-01T02:15:45;22.40;;;11.13;;
11066;SDS011;29763;50.904;5.530;2023-02-01T02:18:30;21.57;;;11.63;;
11066;SDS011;29763;50.904;5.530;2023-02-01T02:48:30;18.37;;;8.60;;
11066;SDS011;29763;50.904;5.530;2023-02-01T02:54:43;18.97;;;8.43;;
11066;SDS011;29763;50.904;5.530;2023-02-01T02:57:20;19.83;;;7.43;;
11066;SDS011;29763;50.904;5.530;2023-02-01T03:00:14;18.43;;;6.47;;
11066;SDS011;29763;50.904;5.530;2023-02-01T03:03:04;17.73;;;6.90;;
11066;SDS011;29763;50.904;5.530;2023-02-01T03:05:49;18.27;;;6.60;;
11066;SDS011;29763;50.904;5.530;2023-02-01T03:08:22;14.50;;;6.17;;
11066;SDS011;29763;50.904;5.530;2023-02-01T03:11:04;15.60;;;5.93;;
11066;SDS011;29763;50.904;5.530;2023-02-01T03:13:36;14.10;;;5.37;;
11066;SDS011;29763;50.904;5.530;2023-02-01T03:16:28;10.13;;;4.77;;
11066;SDS011;29763;50.904;5.530;2023-02-01T03:19:31;15.83;;;4.70;;
11066;SDS011;29763;50.904;5.530;2023-02-01T03:22:11;10.93;;;4.73;;
11066;SDS011;29763;50.904;5.530;2023-02-01T03:24:53;18.60;;;5.03;;
11066;SDS011;29763;50.904;5.530;2023-02-01T03:27:31;15.73;;;4.73;;
11066;SDS011;29763;50.904;5.530;2023-02-01T03:32:38;13.50;;;4.13;;
11066;SDS011;29763;50.904;5.530;2023-02-01T03:35:36;15.40;;;4.47;;
11066;SDS011;29763;50.904;5.530;2023-02-01T03:41:55;13.93;;;4.13;;
11066;SDS011;29763;50.904;5.530;2023-02-01T03:49:44;14.87;;;3.73;;
11066;SDS011;29763;50.904;5.530;2023-02-01T03:52:32;15.98;;;3.80;;
11066;SDS011;29763;50.904;5.530;2023-02-01T03:55:21;13.27;;;3.87;;
11066;SDS011;29763;50.904;5.530;2023-02-01T03:57:55;13.53;;;3.80;;
11066;SDS011;29763;50.904;5.530;2023-02-01T04:00:30;12.93;;;3.87;;
11066;SDS011;29763;50.904;5.530;2023-02-01T04:02:57;13.87;;;3.80;;
11066;SDS011;29763;50.904;5.530;2023-02-01T04:05:42;17.37;;;4.17;;
11066;SDS011;29763;50.904;5.530;2023-02-01T04:08:24;14.53;;;4.00;;
11066;SDS011;29763;50.904;5.530;2023-02-01T04:10:52;11.80;;;3.50;;
11066;SDS011;29763;50.904;5.530;2023-02-01T04:13:18;12.13;;;3.50;;
11066;SDS011;29763;50.904;5.530;2023-02-01T04:15:44;11.63;;;3.83;;
11066;SDS011;29763;50.904;5.530;2023-02-01T04:18:16;14.07;;;3.23;;
11066;SDS011;29763;50.904;5.530;2023-02-01T04:20:44;16.50;;;4.37;;
11066;SDS011;29763;50.904;5.530;2023-02-01T04:23:16;13.00;;;4.33;;
11066;SDS011;29763;50.904;5.530;2023-02-01T04:25:45;12.80;;;3.90;;
11066;SDS011;29763;50.904;5.530;2023-02-01T04:28:14;15.60;;;3.50;;
11066;SDS011;29763;50.904;5.530;2023-02-01T04:30:40;12.33;;;3.37;;
11066;SDS011;29763;50.904;5.530;2023-02-01T04:33:07;13.07;;;4.00;;
11066;SDS011;29763;50.904;5.530;2023-02-01T04:35:33;13.23;;;3.73;;
11066;SDS011;29763;50.904;5.530;2023-02-01T04:38:00;12.07;;;4.43;;
11066;SDS011;29763;50.904;5.530;2023-02-01T04:40:26;12.23;;;3.53;;
11066;SDS011;29763;50.904;5.530;2023-02-01T04:42:55;16.63;;;3.87;;
11066;SDS011;29763;50.904;5.530;2023-02-01T04:45:39;11.87;;;3.53;;
11066;SDS011;29763;50.904;5.530;2023-02-01T04:48:16;16.77;;;3.83;;
11066;SDS011;29763;50.904;5.530;2023-02-01T04:50:49;11.80;;;3.53;;
11066;SDS011;29763;50.904;5.530;2023-02-01T04:53:19;14.03;;;3.43;;
11066;SDS011;29763;50.904;5.530;2023-02-01T04:56:15;12.53;;;3.53;;
11066;SDS011;29763;50.904;5.530;2023-02-01T04:59:03;9.10;;;3.43;;
11066;SDS011;29763;50.904;5.530;2023-02-01T05:01:33;11.97;;;3.40;;
11066;SDS011;29763;50.904;5.530;2023-02-01T05:04:08;15.83;;;3.53;;
11066;SDS011;29763;50.904;5.530;2023-02-01T05:06:34;16.67;;;3.77;;
11066;SDS011;29763;50.904;5.530;2023-02-01T05:09:03;12.63;;;3.40;;
11066;SDS011;29763;50.904;5.530;2023-02-01T05:11:30;14.00;;;3.63;;
11066;SDS011;29763;50.904;5.530;2023-02-01T05:14:15;12.90;;;3.77;;
11066;SDS011;29763;50.904;5.530;2023-02-01T05:16:49;13.33;;;3.70;;
11066;SDS011;29763;50.904;5.530;2023-02-01T05:19:21;16.27;;;4.07;;
11066;SDS011;29763;50.904;5.530;2023-02-01T05:21:53;15.27;;;3.70;;
11066;SDS011;29763;50.904;5.530;2023-02-01T05:24:25;18.43;;;3.43;;
11066;SDS011;29763;50.904;5.530;2023-02-01T05:27:02;15.27;;;3.87;;
11066;SDS011;29763;50.904;5.530;2023-02-01T05:29:33;14.00;;;4.03;;
11066;SDS011;29763;50.904;5.530;2023-02-01T05:31:59;11.30;;;3.57;;
11066;SDS011;29763;50.904;5.530;2023-02-01T05:34:34;13.87;;;3.80;;
11066;SDS011;29763;50.904;5.530;2023-02-01T05:37:17;12.90;;;4.10;;
11066;SDS011;29763;50.904;5.530;2023-02-01T05:39:55;12.40;;;4.03;;
11066;SDS011;29763;50.904;5.530;2023-02-01T05:42:21;13.87;;;3.73;;
11066;SDS011;29763;50.904;5.530;2023-02-01T05:47:59;14.40;;;3.77;;
11066;SDS011;29763;50.904;5.530;2023-02-01T05:50:38;12.43;;;3.77;;
11066;SDS011;29763;50.904;5.530;2023-02-01T05:53:04;12.50;;;4.10;;
11066;SDS011;29763;50.904;5.530;2023-02-01T05:55:32;15.23;;;3.60;;
11066;SDS011;29763;50.904;5.530;2023-02-01T05:58:10;13.17;;;3.93;;
11066;SDS011;29763;50.904;5.530;2023-02-01T06:03:37;13.37;;;3.83;;
11066;SDS011;29763;50.904;5.530;2023-02-01T06:06:22;14.33;;;3.83;;
11066;SDS011;29763;50.904;5.530;2023-02-01T06:12:08;15.87;;;4.23;;
11066;SDS011;29763;50.904;5.530;2023-02-01T06:14:49;18.77;;;3.90;;
11066;SDS011;29763;50.904;5.530;2023-02-01T06:17:23;15.03;;;4.23;;
11066;SDS011;29763;50.904;5.530;2023-02-01T06:20:04;11.67;;;3.77;;
11066;SDS011;29763;50.904;5.530;2023-02-01T06:22:33;14.17;;;4.07;;
11066;SDS011;29763;50.904;5.530;2023-02-01T06:25:12;14.07;;;3.93;;
11066;SDS011;29763;50.904;5.530;2023-02-01T06:27:38;14.60;;;4.30;;
11066;SDS011;29763;50.904;5.530;2023-02-01T06:30:07;14.93;;;4.53;;
11066;SDS011;29763;50.904;5.530;2023-02-01T06:32:34;11.87;;;3.30;;
11066;SDS011;29763;50.904;5.530;2023-02-01T06:35:02;15.23;;;4.03;;
11066;SDS011;29763;50.904;5.530;2023-02-01T06:37:29;13.60;;;3.97;;
11066;SDS011;29763;50.904;5.530;2023-02-01T06:39:57;15.70;;;4.27;;
11066;SDS011;29763;50.904;5.530;2023-02-01T06:42:29;15.03;;;4.03;;
11066;SDS011;29763;50.904;5.530;2023-02-01T06:44:57;15.10;;;4.50;;
11066;SDS011;29763;50.904;5.530;2023-02-01T06:47:33;15.33;;;3.80;;
11066;SDS011;29763;50.904;5.530;2023-02-01T06:50:02;13.70;;;3.73;;
11066;SDS011;29763;50.904;5.530;2023-02-01T06:52:32;17.37;;;4.27;;
11066;SDS011;29763;50.904;5.530;2023-02-01T06:55:11;18.90;;;4.70;;
11066;SDS011;29763;50.904;5.530;2023-02-01T06:57:46;16.27;;;4.23;;
11066;SDS011;29763;50.904;5.530;2023-02-01T07:00:13;16.03;;;4.20;;
11066;SDS011;29763;50.904;5.530;2023-02-01T07:02:43;18.70;;;4.60;;
11066;SDS011;29763;50.904;5.530;2023-02-01T07:05:14;17.57;;;4.10;;
11066;SDS011;29763;50.904;5.530;2023-02-01T07:08:04;19.87;;;5.03;;
11066;SDS011;29763;50.904;5.530;2023-02-01T07:11:08;12.33;;;4.23;;
11066;SDS011;29763;50.904;5.530;2023-02-01T07:13:45;15.83;;;4.50;;
11066;SDS011;29763;50.904;5.530;2023-02-01T07:16:14;17.17;;;4.50;;
11066;SDS011;29763;50.904;5.530;2023-02-01T07:18:45;15.30;;;4.33;;
11066;SDS011;29763;50.904;5.530;2023-02-01T07:21:13;18.27;;;4.27;;
11066;SDS011;29763;50.904;5.530;2023-02-01T07:23:39;15.70;;;4.47;;
11066;SDS011;29763;50.904;5.530;2023-02-01T07:26:23;16.73;;;4.57;;
11066;SDS011;29763;50.904;5.530;2023-02-01T07:28:49;14.80;;;4.40;;
11066;SDS011;29763;50.904;5.530;2023-02-01T07:31:18;13.97;;;3.93;;
11066;SDS011;29763;50.904;5.530;2023-02-01T07:33:46;16.87;;;4.03;;
11066;SDS011;29763;50.904;5.530;2023-02-01T07:36:13;16.10;;;3.80;;
11066;SDS011;29763;50.904;5.530;2023-02-01T07:38:42;21.90;;;4.73;;
11066;SDS011;29763;50.904;5.530;2023-02-01T07:41:08;20.30;;;4.13;;
11066;SDS011;29763;50.904;5.530;2023-02-01T07:43:34;15.17;;;4.80;;
11066;SDS011;29763;50.904;5.530;2023-02-01T07:46:02;14.40;;;4.87;;
11066;SDS011;29763;50.904;5.530;2023-02-01T07:48:29;21.90;;;5.20;;
11066;SDS011;29763;50.904;5.530;2023-02-01T07:53:52;16.60;;;4.30;;
11066;SDS011;29763;50.904;5.530;2023-02-01T07:56:18;22.53;;;5.40;;
11066;SDS011;29763;50.904;5.530;2023-02-01T07:58:51;18.63;;;4.77;;
11066;SDS011;29763;50.904;5.530;2023-02-01T08:01:24;22.93;;;4.60;;
11066;SDS011;29763;50.904;5.530;2023-02-01T08:03:56;16.67;;;5.07;;
11066;SDS011;29763;50.904;5.530;2023-02-01T08:06:27;18.00;;;4.57;;
11066;SDS011;29763;50.904;5.530;2023-02-01T08:08:57;14.93;;;4.57;;
11066;SDS011;29763;50.904;5.530;2023-02-01T08:11:24;16.07;;;5.07;;
11066;SDS011;29763;50.904;5.530;2023-02-01T08:13:50;16.33;;;4.43;;
11066;SDS011;29763;50.904;5.530;2023-02-01T08:16:17;18.63;;;4.67;;
11066;SDS011;29763;50.904;5.530;2023-02-01T08:18:47;17.80;;;4.20;;
11066;SDS011;29763;50.904;5.530;2023-02-01T08:21:13;17.47;;;5.30;;
11066;SDS011;29763;50.904;5.530;2023-02-01T08:23:42;19.97;;;4.20;;
11066;SDS011;29763;50.904;5.530;2023-02-01T08:28:39;14.93;;;4.03;;
11066;SDS011;29763;50.904;5.530;2023-02-01T08:31:07;14.93;;;4.50;;
11066;SDS011;29763;50.904;5.530;2023-02-01T08:33:34;22.60;;;5.40;;
11066;SDS011;29763;50.904;5.530;2023-02-01T08:36:03;17.07;;;4.23;;
11066;SDS011;29763;50.904;5.530;2023-02-01T08:38:30;21.97;;;4.77;;
11066;SDS011;29763;50.904;5.530;2023-02-01T08:40:56;17.43;;;5.10;;
11066;SDS011;29763;50.904;5.530;2023-02-01T08:43:22;20.73;;;4.40;;
11066;SDS011;29763;50.904;5.530;2023-02-01T08:45:53;16.27;;;4.30;;
11066;SDS011;29763;50.904;5.530;2023-02-01T08:48:20;15.93;;;4.43;;
11066;SDS011;29763;50.904;5.530;2023-02-01T08:50:47;18.77;;;4.63;;
11066;SDS011;29763;50.904;5.530;2023-02-01T08:53:13;18.23;;;4.73;;
11066;SDS011;29763;50.904;5.530;2023-02-01T08:55:39;50.80;;;6.20;;
11066;SDS011;29763;50.904;5.530;2023-02-01T08:58:05;20.50;;;4.73;;
11066;SDS011;29763;50.904;5.530;2023-02-01T09:00:30;15.70;;;4.20;;
11066;SDS011;29763;50.904;5.530;2023-02-01T09:02:56;16.83;;;4.63;;
11066;SDS011;29763;50.904;5.530;2023-02-01T09:05:22;17.60;;;4.93;;
11066;SDS011;29763;50.904;5.530;2023-02-01T09:07:52;13.13;;;4.37;;
11066;SDS011;29763;50.904;5.530;2023-02-01T09:10:19;17.40;;;4.30;;
11066;SDS011;29763;50.904;5.530;2023-02-01T09:12:44;13.93;;;4.60;;
11066;SDS011;29763;50.904;5.530;2023-02-01T09:15:10;19.40;;;4.87;;
11066;SDS011;29763;50.904;5.530;2023-02-01T09:17:38;14.53;;;3.60;;
11066;SDS011;29763;50.904;5.530;2023-02-01T09:20:06;16.93;;;4.20;;
11066;SDS011;29763;50.904;5.530;2023-02-01T09:22:35;17.20;;;4.40;;
11066;SDS011;29763;50.904;5.530;2023-02-01T09:25:00;15.37;;;4.23;;
11066;SDS011;29763;50.904;5.530;2023-02-01T09:27:26;16.27;;;4.57;;
11066;SDS011;29763;50.904;5.530;2023-02-01T09:29:52;14.53;;;4.27;;
11066;SDS011;29763;50.904;5.530;2023-02-01T09:32:22;19.97;;;4.50;;
11066;SDS011;29763;50.904;5.530;2023-02-01T09:34:49;19.03;;;4.67;;
11066;SDS011;29763;50.904;5.530;2023-02-01T09:37:16;19.33;;;4.60;;
11066;SDS011;29763;50.904;5.530;2023-02-01T09:39:42;15.57;;;4.50;;
11066;SDS011;29763;50.904;5.530;2023-02-01T09:45:32;14.40;;;4.23;;
11066;SDS011;29763;50.904;5.530;2023-02-01T09:48:38;17.07;;;4.47;;
11066;SDS011;29763;50.904;5.530;2023-02-01T09:51:11;18.97;;;4.70;;
11066;SDS011;29763;50.904;5.530;2023-02-01T09:53:51;15.70;;;4.33;;
11066;SDS011;29763;50.904;5.530;2023-02-01T09:56:32;15.63;;;5.03;;
11066;SDS011;29763;50.904;5.530;2023-02-01T09:59:10;14.40;;;4.63;;
11066;SDS011;29763;50.904;5.530;2023-02-01T10:01:42;19.30;;;5.20;;
11066;SDS011;29763;50.904;5.530;2023-02-01T10:04:09;15.87;;;4.63;;
11066;SDS011;29763;50.904;5.530;2023-02-01T10:25:56;15.57;;;3.73;;
11066;SDS011;29763;50.904;5.530;2023-02-01T10:28:29;16.20;;;4.50;;
11066;SDS011;29763;50.904;5.530;2023-02-01T10:30:59;15.83;;;4.13;;
11066;SDS011;29763;50.904;5.530;2023-02-01T10:33:49;18.37;;;4.40;;
11066;SDS011;29763;50.904;5.530;2023-02-01T10:38:48;16.03;;;4.80;;
11066;SDS011;29763;50.904;5.530;2023-02-01T10:43:43;14.70;;;4.13;;
11066;SDS011;29763;50.904;5.530;2023-02-01T10:46:10;20.53;;;4.17;;
11066;SDS011;29763;50.904;5.530;2023-02-01T10:48:36;12.90;;;3.72;;
11066;SDS011;29763;50.904;5.530;2023-02-01T10:51:07;15.77;;;4.20;;
11066;SDS011;29763;50.904;5.530;2023-02-01T10:54:10;15.83;;;4.40;;
11066;SDS011;29763;50.904;5.530;2023-02-01T10:56:30;11.77;;;4.07;;
11066;SDS011;29763;50.904;5.530;2023-02-01T10:59:05;14.30;;;3.73;;
11066;SDS011;29763;50.904;5.530;2023-02-01T11:01:40;14.20;;;4.03;;
11066;SDS011;29763;50.904;5.530;2023-02-01T11:04:13;17.13;;;3.90;;
11066;SDS011;29763;50.904;5.530;2023-02-01T11:06:42;15.68;;;4.03;;
11066;SDS011;29763;50.904;5.530;2023-02-01T11:09:32;13.65;;;3.97;;
11066;SDS011;29763;50.904;5.530;2023-02-01T11:12:20;16.42;;;4.20;;
11066;SDS011;29763;50.904;5.530;2023-02-01T11:14:50;16.00;;;3.70;;
11066;SDS011;29763;50.904;5.530;2023-02-01T11:17:26;14.27;;;3.85;;
11066;SDS011;29763;50.904;5.530;2023-02-01T11:23:02;11.95;;;3.85;;
11066;SDS011;29763;50.904;5.530;2023-02-01T11:25:27;14.63;;;3.75;;
11066;SDS011;29763;50.904;5.530;2023-02-01T11:28:03;12.60;;;4.00;;
11066;SDS011;29763;50.904;5.530;2023-02-01T11:30:36;14.27;;;3.63;;
11066;SDS011;29763;50.904;5.530;2023-02-01T11:33:05;11.13;;;3.22;;
11066;SDS011;29763;50.904;5.530;2023-02-01T11:35:37;12.15;;;3.53;;
11066;SDS011;29763;50.904;5.530;2023-02-01T11:38:11;14.32;;;3.65;;
11066;SDS011;29763;50.904;5.530;2023-02-01T11:40:43;13.93;;;3.55;;
11066;SDS011;29763;50.904;5.530;2023-02-01T11:45:58;11.45;;;3.40;;
11066;SDS011;29763;50.904;5.530;2023-02-01T11:48:26;11.80;;;3.35;;
11066;SDS011;29763;50.904;5.530;2023-02-01T12:02:47;14.00;;;3.33;;
11066;SDS011;29763;50.904;5.530;2023-02-01T12:04:57;11.65;;;3.33;;
11066;SDS011;29763;50.904;5.530;2023-02-01T12:11:01;13.93;;;3.13;;
11066;SDS011;29763;50.904;5.530;2023-02-01T12:16:34;12.63;;;3.33;;
11066;SDS011;29763;50.904;5.530;2023-02-01T12:19:22;11.00;;;3.55;;
11066;SDS011;29763;50.904;5.530;2023-02-01T12:22:08;7.78;;;2.78;;
11066;SDS011;29763;50.904;5.530;2023-02-01T12:25:11;12.17;;;3.50;;
11066;SDS011;29763;50.904;5.530;2023-02-01T12:46:59;11.65;;;3.00;;
11066;SDS011;29763;50.904;5.530;2023-02-01T12:52:40;11.27;;;2.87;;
11066;SDS011;29763;50.904;5.530;2023-02-01T12:58:21;13.90;;;3.58;;
11066;SDS011;29763;50.904;5.530;2023-02-01T13:01:09;11.10;;;2.97;;
11066;SDS011;29763;50.904;5.530;2023-02-01T13:03:44;12.75;;;3.08;;
11066;SDS011;29763;50.904;5.530;2023-02-01T13:06:21;9.80;;;3.20;;
11066;SDS011;29763;50.904;5.530;2023-02-01T13:09:17;12.65;;;3.33;;
11066;SDS011;29763;50.904;5.530;2023-02-01T13:11:59;12.07;;;3.40;;
11066;SDS011;29763;50.904;5.530;2023-02-01T13:14:40;12.17;;;3.20;;
11066;SDS011;29763;50.904;5.530;2023-02-01T13:17:19;9.85;;;3.00;;
11066;SDS011;29763;50.904;5.530;2023-02-01T13:22:59;10.15;;;3.10;;
11066;SDS011;29763;50.904;5.530;2023-02-01T13:25:38;12.85;;;2.90;;
11066;SDS011;29763;50.904;5.530;2023-02-01T13:28:16;10.45;;;2.70;;
11066;SDS011;29763;50.904;5.530;2023-02-01T13:33:37;6.82;;;2.85;;
11066;SDS011;29763;50.904;5.530;2023-02-01T13:44:52;8.43;;;2.67;;
11066;SDS011;29763;50.904;5.530;2023-02-01T13:49:55;11.63;;;2.93;;
11066;SDS011;29763;50.904;5.530;2023-02-01T13:52:29;10.55;;;2.63;;
11066;SDS011;29763;50.904;5.530;2023-02-01T13:55:14;9.15;;;2.58;;
11066;SDS011;29763;50.904;5.530;2023-02-01T13:57:52;7.03;;;2.50;;
11066;SDS011;29763;50.904;5.530;2023-02-01T14:00:33;10.25;;;3.15;;
11066;SDS011;29763;50.904;5.530;2023-02-01T14:03:11;9.95;;;2.75;;
11066;SDS011;29763;50.904;5.530;2023-02-01T14:08:36;15.15;;;3.10;;
11066;SDS011;29763;50.904;5.530;2023-02-01T14:11:04;11.13;;;2.97;;
11066;SDS011;29763;50.904;5.530;2023-02-01T14:13:49;7.78;;;2.40;;
11066;SDS011;29763;50.904;5.530;2023-02-01T14:16:15;7.00;;;2.55;;
11066;SDS011;29763;50.904;5.530;2023-02-01T14:21:22;9.20;;;2.60;;
11066;SDS011;29763;50.904;5.530;2023-02-01T14:40:05;10.75;;;2.80;;
11066;SDS011;29763;50.904;5.530;2023-02-01T14:43:03;11.23;;;2.95;;
11066;SDS011;29763;50.904;5.530;2023-02-01T14:53:34;11.70;;;3.45;;
11066;SDS011;29763;50.904;5.530;2023-02-01T14:56:08;6.97;;;2.53;;
11066;SDS011;29763;50.904;5.530;2023-02-01T14:59:15;7.93;;;2.75;;
11066;SDS011;29763;50.904;5.530;2023-02-01T15:01:55;7.85;;;2.45;;
11066;SDS011;29763;50.904;5.530;2023-02-01T15:04:27;8.50;;;2.70;;
11066;SDS011;29763;50.904;5.530;2023-02-01T15:07:07;6.30;;;2.58;;
11066;SDS011;29763;50.904;5.530;2023-02-01T15:09:38;13.13;;;5.95;;
11066;SDS011;29763;50.904;5.530;2023-02-01T15:17:38;16.97;;;7.57;;
11066;SDS011;29763;50.904;5.530;2023-02-01T15:20:16;9.18;;;3.35;;
11066;SDS011;29763;50.904;5.530;2023-02-01T15:28:24;11.25;;;3.58;;
11066;SDS011;29763;50.904;5.530;2023-02-01T15:31:01;10.93;;;3.10;;
11066;SDS011;29763;50.904;5.530;2023-02-01T15:33:29;9.80;;;2.88;;
11066;SDS011;29763;50.904;5.530;2023-02-01T15:38:39;9.20;;;2.88;;
11066;SDS011;29763;50.904;5.530;2023-02-01T15:43:50;10.75;;;3.15;;
11066;SDS011;29763;50.904;5.530;2023-02-01T15:46:40;11.93;;;3.30;;
11066;SDS011;29763;50.904;5.530;2023-02-01T15:51:58;9.57;;;3.03;;
11066;SDS011;29763;50.904;5.530;2023-02-01T15:54:37;8.53;;;3.10;;
11066;SDS011;29763;50.904;5.530;2023-02-01T15:57:49;12.40;;;3.13;;
11066;SDS011;29763;50.904;5.530;2023-02-01T16:00:48;11.07;;;3.17;;
11066;SDS011;29763;50.904;5.530;2023-02-01T16:08:53;10.05;;;3.45;;
11066;SDS011;29763;50.904;5.530;2023-02-01T16:12:22;10.90;;;2.90;;
11066;SDS011;29763;50.904;5.530;2023-02-01T16:15:10;8.43;;;2.80;;
11066;SDS011;29763;50.904;5.530;2023-02-01T16:21:10;11.23;;;3.03;;
11066;SDS011;29763;50.904;5.530;2023-02-01T16:23:58;11.20;;;3.20;;
11066;SDS011;29763;50.904;5.530;2023-02-01T16:26:49;9.02;;;2.90;;
11066;SDS011;29763;50.904;5.530;2023-02-01T16:29:24;7.82;;;3.05;;
11066;SDS011;29763;50.904;5.530;2023-02-01T16:32:35;12.87;;;3.70;;
11066;SDS011;29763;50.904;5.530;2023-02-01T16:35:15;12.10;;;3.00;;
11066;SDS011;29763;50.904;5.530;2023-02-01T16:38:15;13.90;;;3.23;;
11066;SDS011;29763;50.904;5.530;2023-02-01T16:40:49;11.10;;;3.30;;
11066;SDS011;29763;50.904;5.530;2023-02-01T16:43:30;15.67;;;4.77;;
11066;SDS011;29763;50.904;5.530;2023-02-01T16:46:12;13.07;;;3.70;;
11066;SDS011;29763;50.904;5.530;2023-02-01T16:48:51;14.50;;;3.70;;
11066;SDS011;29763;50.904;5.530;2023-02-01T16:51:23;12.83;;;3.63;;
11066;SDS011;29763;50.904;5.530;2023-02-01T16:53:52;10.50;;;4.10;;
11066;SDS011;29763;50.904;5.530;2023-02-01T16:56:27;10.05;;;4.03;;
11066;SDS011;29763;50.904;5.530;2023-02-01T16:58:57;8.77;;;3.27;;
11066;SDS011;29763;50.904;5.530;2023-02-01T17:01:23;10.73;;;4.03;;
11066;SDS011;29763;50.904;5.530;2023-02-01T17:03:52;10.45;;;3.22;;
11066;SDS011;29763;50.904;5.530;2023-02-01T17:06:20;12.13;;;3.50;;
11066;SDS011;29763;50.904;5.530;2023-02-01T17:08:50;9.18;;;3.40;;
11066;SDS011;29763;50.904;5.530;2023-02-01T17:11:21;12.55;;;3.40;;
11066;SDS011;29763;50.904;5.530;2023-02-01T17:13:47;12.40;;;3.35;;
11066;SDS011;29763;50.904;5.530;2023-02-01T17:16:20;10.27;;;3.33;;
11066;SDS011;29763;50.904;5.530;2023-02-01T17:18:59;11.77;;;3.45;;
11066;SDS011;29763;50.904;5.530;2023-02-01T17:21:30;13.75;;;4.15;;
11066;SDS011;29763;50.904;5.530;2023-02-01T17:24:15;9.98;;;3.30;;
11066;SDS011;29763;50.904;5.530;2023-02-01T17:26:42;9.45;;;3.13;;
11066;SDS011;29763;50.904;5.530;2023-02-01T17:29:10;12.45;;;3.42;;
11066;SDS011;29763;50.904;5.530;2023-02-01T17:31:50;11.40;;;3.83;;
11066;SDS011;29763;50.904;5.530;2023-02-01T17:34:17;10.47;;;3.23;;
11066;SDS011;29763;50.904;5.530;2023-02-01T17:36:44;11.15;;;3.72;;
11066;SDS011;29763;50.904;5.530;2023-02-01T17:39:12;13.63;;;3.83;;
11066;SDS011;29763;50.904;5.530;2023-02-01T17:41:59;16.23;;;4.05;;
11066;SDS011;29763;50.904;5.530;2023-02-01T17:44:26;15.50;;;3.40;;
11066;SDS011;29763;50.904;5.530;2023-02-01T17:46:56;11.35;;;3.47;;
11066;SDS011;29763;50.904;5.530;2023-02-01T17:49:23;13.43;;;3.92;;
11066;SDS011;29763;50.904;5.530;2023-02-01T17:51:52;11.45;;;3.65;;
11066;SDS011;29763;50.904;5.530;2023-02-01T17:54:26;10.07;;;3.53;;
11066;SDS011;29763;50.904;5.530;2023-02-01T17:56:52;11.27;;;3.70;;
11066;SDS011;29763;50.904;5.530;2023-02-01T17:59:17;12.45;;;3.88;;
11066;SDS011;29763;50.904;5.530;2023-02-01T18:01:43;12.82;;;4.03;;
11066;SDS011;29763;50.904;5.530;2023-02-01T18:04:12;29.83;;;13.20;;
11066;SDS011;29763;50.904;5.530;2023-02-01T18:06:45;11.23;;;4.20;;
11066;SDS011;29763;50.904;5.530;2023-02-01T18:09:21;13.70;;;3.80;;
11066;SDS011;29763;50.904;5.530;2023-02-01T18:11:47;14.35;;;4.40;;
11066;SDS011;29763;50.904;5.530;2023-02-01T18:14:14;10.65;;;3.25;;
11066;SDS011;29763;50.904;5.530;2023-02-01T18:16:40;13.93;;;3.97;;
11066;SDS011;29763;50.904;5.530;2023-02-01T18:19:07;13.53;;;3.77;;
11066;SDS011;29763;50.904;5.530;2023-02-01T18:21:37;10.77;;;3.33;;
11066;SDS011;29763;50.904;5.530;2023-02-01T18:24:10;13.88;;;3.70;;
11066;SDS011;29763;50.904;5.530;2023-02-01T18:26:41;12.15;;;4.10;;
11066;SDS011;29763;50.904;5.530;2023-02-01T18:29:07;12.77;;;4.20;;
11066;SDS011;29763;50.904;5.530;2023-02-01T18:31:34;14.00;;;4.15;;
11066;SDS011;29763;50.904;5.530;2023-02-01T18:34:05;14.20;;;4.07;;
11066;SDS011;29763;50.904;5.530;2023-02-01T18:36:33;12.13;;;3.30;;
11066;SDS011;29763;50.904;5.530;2023-02-01T18:38:59;11.73;;;3.75;;
11066;SDS011;29763;50.904;5.530;2023-02-01T18:41:26;14.70;;;4.00;;
11066;SDS011;29763;50.904;5.530;2023-02-01T18:43:54;10.18;;;3.55;;
11066;SDS011;29763;50.904;5.530;2023-02-01T18:46:20;11.63;;;3.70;;